sensor_id;sensor_type;location;lat;lon;timestamp;P1;durP1;ratioP1;P2;durP2;ratioP2
17145;SDS011;8688;54.444;18.444;2023-08-07T00:01:12;0.75;;;0.28;;
17145;SDS011;8688;54.444;18.444;2023-08-07T00:03:42;0.80;;;0.20;;
17145;SDS011;8688;54.444;18.444;2023-08-07T00:06:32;2.53;;;0.32;;
17145;SDS011;8688;54.444;18.444;2023-08-07T00:09:00;0.73;;;0.38;;
17145;SDS011;8688;54.444;18.444;2023-08-07T00:11:30;3.50;;;0.45;;
17145;SDS011;8688;54.444;18.444;2023-08-07T00:13:59;0.90;;;0.25;;
17145;SDS011;8688;54.444;18.444;2023-08-07T00:16:39;2.35;;;0.40;;
17145;SDS011;8688;54.444;18.444;2023-08-07T00:19:11;1.00;;;0.20;;
17145;SDS011;8688;54.444;18.444;2023-08-07T00:22:01;0.75;;;0.20;;
17145;SDS011;8688;54.444;18.444;2023-08-07T00:24:34;2.00;;;0.30;;
17145;SDS011;8688;54.444;18.444;2023-08-07T00:27:07;0.43;;;0.30;;
17145;SDS011;8688;54.444;18.444;2023-08-07T00:29:45;2.40;;;0.52;;
17145;SDS011;8688;54.444;18.444;2023-08-07T00:32:24;0.52;;;0.20;;
17145;SDS011;8688;54.444;18.444;2023-08-07T00:34:56;2.33;;;0.30;;
17145;SDS011;8688;54.444;18.444;2023-08-07T00:37:28;0.65;;;0.28;;
17145;SDS011;8688;54.444;18.444;2023-08-07T00:40:01;0.40;;;0.20;;
17145;SDS011;8688;54.444;18.444;2023-08-07T00:42:34;0.88;;;0.20;;
17145;SDS011;8688;54.444;18.444;2023-08-07T00:45:04;1.58;;;0.32;;
17145;SDS011;8688;54.444;18.444;2023-08-07T00:47:41;1.30;;;0.25;;
17145;SDS011;8688;54.444;18.444;2023-08-07T00:50:11;0.60;;;0.20;;
17145;SDS011;8688;54.444;18.444;2023-08-07T00:52:43;1.10;;;0.20;;
17145;SDS011;8688;54.444;18.444;2023-08-07T00:55:14;0.10;;;0.10;;
17145;SDS011;8688;54.444;18.444;2023-08-07T00:57:43;0.77;;;0.40;;
17145;SDS011;8688;54.444;18.444;2023-08-07T01:00:13;2.67;;;0.22;;
17145;SDS011;8688;54.444;18.444;2023-08-07T01:02:45;0.30;;;0.20;;
17145;SDS011;8688;54.444;18.444;2023-08-07T01:05:16;0.20;;;0.17;;
17145;SDS011;8688;54.444;18.444;2023-08-07T01:07:46;0.30;;;0.20;;
17145;SDS011;8688;54.444;18.444;2023-08-07T01:10:20;0.32;;;0.28;;
17145;SDS011;8688;54.444;18.444;2023-08-07T01:12:54;0.98;;;0.30;;
17145;SDS011;8688;54.444;18.444;2023-08-07T01:15:29;1.00;;;0.32;;
17145;SDS011;8688;54.444;18.444;2023-08-07T01:18:01;1.15;;;0.25;;
17145;SDS011;8688;54.444;18.444;2023-08-07T01:20:33;0.98;;;0.20;;
17145;SDS011;8688;54.444;18.444;2023-08-07T01:23:05;0.15;;;0.13;;
17145;SDS011;8688;54.444;18.444;2023-08-07T01:25:38;1.05;;;0.20;;
17145;SDS011;8688;54.444;18.444;2023-08-07T01:28:12;2.15;;;0.30;;
17145;SDS011;8688;54.444;18.444;2023-08-07T01:30:49;0.75;;;0.20;;
17145;SDS011;8688;54.444;18.444;2023-08-07T01:33:31;0.30;;;0.20;;
17145;SDS011;8688;54.444;18.444;2023-08-07T01:36:11;0.52;;;0.20;;
17145;SDS011;8688;54.444;18.444;2023-08-07T01:38:44;0.98;;;0.22;;
17145;SDS011;8688;54.444;18.444;2023-08-07T01:41:18;2.78;;;0.30;;
17145;SDS011;8688;54.444;18.444;2023-08-07T01:43:47;1.08;;;0.32;;
17145;SDS011;8688;54.444;18.444;2023-08-07T01:46:18;1.10;;;0.30;;
17145;SDS011;8688;54.444;18.444;2023-08-07T01:48:47;1.52;;;0.20;;
17145;SDS011;8688;54.444;18.444;2023-08-07T01:51:18;0.43;;;0.13;;
17145;SDS011;8688;54.444;18.444;2023-08-07T01:53:49;0.60;;;0.30;;
17145;SDS011;8688;54.444;18.444;2023-08-07T01:56:32;1.75;;;0.30;;
17145;SDS011;8688;54.444;18.444;2023-08-07T01:59:01;2.72;;;0.28;;
17145;SDS011;8688;54.444;18.444;2023-08-07T02:01:32;0.75;;;0.30;;
17145;SDS011;8688;54.444;18.444;2023-08-07T02:04:02;2.63;;;0.40;;
17145;SDS011;8688;54.444;18.444;2023-08-07T02:06:37;0.73;;;0.22;;
17145;SDS011;8688;54.444;18.444;2023-08-07T02:09:07;2.38;;;0.30;;
17145;SDS011;8688;54.444;18.444;2023-08-07T02:11:38;1.75;;;0.40;;
17145;SDS011;8688;54.444;18.444;2023-08-07T02:14:08;1.30;;;0.30;;
17145;SDS011;8688;54.444;18.444;2023-08-07T02:16:39;0.95;;;0.20;;
17145;SDS011;8688;54.444;18.444;2023-08-07T02:19:10;0.77;;;0.20;;
17145;SDS011;8688;54.444;18.444;2023-08-07T02:21:40;0.70;;;0.30;;
17145;SDS011;8688;54.444;18.444;2023-08-07T02:24:12;0.57;;;0.20;;
17145;SDS011;8688;54.444;18.444;2023-08-07T02:26:41;1.10;;;0.30;;
17145;SDS011;8688;54.444;18.444;2023-08-07T02:29:13;0.43;;;0.22;;
17145;SDS011;8688;54.444;18.444;2023-08-07T02:31:46;1.80;;;0.47;;
17145;SDS011;8688;54.444;18.444;2023-08-07T02:34:18;1.27;;;0.28;;
17145;SDS011;8688;54.444;18.444;2023-08-07T02:36:52;0.30;;;0.20;;
17145;SDS011;8688;54.444;18.444;2023-08-07T02:39:25;0.45;;;0.22;;
17145;SDS011;8688;54.444;18.444;2023-08-07T02:41:54;1.27;;;0.30;;
17145;SDS011;8688;54.444;18.444;2023-08-07T02:44:23;0.32;;;0.20;;
17145;SDS011;8688;54.444;18.444;2023-08-07T02:46:52;0.10;;;0.10;;
17145;SDS011;8688;54.444;18.444;2023-08-07T02:49:21;1.85;;;0.30;;
17145;SDS011;8688;54.444;18.444;2023-08-07T02:51:52;0.50;;;0.20;;
17145;SDS011;8688;54.444;18.444;2023-08-07T02:54:26;0.30;;;0.15;;
17145;SDS011;8688;54.444;18.444;2023-08-07T02:57:04;1.92;;;0.10;;
17145;SDS011;8688;54.444;18.444;2023-08-07T02:59:33;0.75;;;0.28;;
17145;SDS011;8688;54.444;18.444;2023-08-07T03:02:11;0.20;;;0.20;;
17145;SDS011;8688;54.444;18.444;2023-08-07T03:04:43;0.13;;;0.13;;
17145;SDS011;8688;54.444;18.444;2023-08-07T03:07:15;0.10;;;0.10;;
17145;SDS011;8688;54.444;18.444;2023-08-07T03:09:53;2.40;;;0.32;;
17145;SDS011;8688;54.444;18.444;2023-08-07T03:12:32;0.10;;;0.10;;
17145;SDS011;8688;54.444;18.444;2023-08-07T03:15:03;0.47;;;0.17;;
17145;SDS011;8688;54.444;18.444;2023-08-07T03:17:33;0.98;;;0.20;;
17145;SDS011;8688;54.444;18.444;2023-08-07T03:20:05;0.15;;;0.10;;
17145;SDS011;8688;54.444;18.444;2023-08-07T03:22:35;0.60;;;0.20;;
17145;SDS011;8688;54.444;18.444;2023-08-07T03:25:09;0.10;;;0.10;;
17145;SDS011;8688;54.444;18.444;2023-08-07T03:27:38;0.38;;;0.20;;
17145;SDS011;8688;54.444;18.444;2023-08-07T03:30:07;0.20;;;0.10;;
17145;SDS011;8688;54.444;18.444;2023-08-07T03:32:43;0.10;;;0.10;;
17145;SDS011;8688;54.444;18.444;2023-08-07T03:35:12;0.15;;;0.15;;
17145;SDS011;8688;54.444;18.444;2023-08-07T03:37:41;0.17;;;0.10;;
17145;SDS011;8688;54.444;18.444;2023-08-07T03:40:12;0.20;;;0.20;;
17145;SDS011;8688;54.444;18.444;2023-08-07T03:42:41;0.10;;;0.10;;
17145;SDS011;8688;54.444;18.444;2023-08-07T03:45:11;1.63;;;0.22;;
17145;SDS011;8688;54.444;18.444;2023-08-07T03:47:39;2.45;;;0.20;;
17145;SDS011;8688;54.444;18.444;2023-08-07T03:50:09;0.38;;;0.30;;
17145;SDS011;8688;54.444;18.444;2023-08-07T03:52:40;0.20;;;0.20;;
17145;SDS011;8688;54.444;18.444;2023-08-07T03:55:12;0.35;;;0.25;;
17145;SDS011;8688;54.444;18.444;2023-08-07T03:57:41;0.52;;;0.20;;
17145;SDS011;8688;54.444;18.444;2023-08-07T04:00:11;0.30;;;0.20;;
17145;SDS011;8688;54.444;18.444;2023-08-07T04:02:48;1.48;;;0.20;;
17145;SDS011;8688;54.444;18.444;2023-08-07T04:05:17;0.60;;;0.38;;
17145;SDS011;8688;54.444;18.444;2023-08-07T04:07:46;0.90;;;0.40;;
17145;SDS011;8688;54.444;18.444;2023-08-07T04:10:19;0.25;;;0.10;;
17145;SDS011;8688;54.444;18.444;2023-08-07T04:12:57;0.68;;;0.20;;
17145;SDS011;8688;54.444;18.444;2023-08-07T04:15:26;1.17;;;0.10;;
17145;SDS011;8688;54.444;18.444;2023-08-07T04:17:54;0.05;;;0.05;;
17145;SDS011;8688;54.444;18.444;2023-08-07T04:20:25;1.20;;;0.20;;
17145;SDS011;8688;54.444;18.444;2023-08-07T04:22:57;0.20;;;0.20;;
17145;SDS011;8688;54.444;18.444;2023-08-07T04:25:33;0.20;;;0.10;;
17145;SDS011;8688;54.444;18.444;2023-08-07T04:28:10;1.27;;;0.20;;
17145;SDS011;8688;54.444;18.444;2023-08-07T04:30:38;0.15;;;0.15;;
17145;SDS011;8688;54.444;18.444;2023-08-07T04:33:07;0.25;;;0.20;;
17145;SDS011;8688;54.444;18.444;2023-08-07T04:35:36;0.52;;;0.20;;
17145;SDS011;8688;54.444;18.444;2023-08-07T04:38:07;0.57;;;0.20;;
17145;SDS011;8688;54.444;18.444;2023-08-07T04:40:45;0.98;;;0.20;;
17145;SDS011;8688;54.444;18.444;2023-08-07T04:43:14;0.20;;;0.10;;
17145;SDS011;8688;54.444;18.444;2023-08-07T04:45:46;0.30;;;0.10;;
17145;SDS011;8688;54.444;18.444;2023-08-07T04:48:15;0.25;;;0.13;;
17145;SDS011;8688;54.444;18.444;2023-08-07T04:50:46;0.20;;;0.17;;
17145;SDS011;8688;54.444;18.444;2023-08-07T04:53:17;0.90;;;0.20;;
17145;SDS011;8688;54.444;18.444;2023-08-07T04:55:47;0.17;;;0.13;;
17145;SDS011;8688;54.444;18.444;2023-08-07T04:58:16;1.67;;;0.20;;
17145;SDS011;8688;54.444;18.444;2023-08-07T05:00:53;0.30;;;0.20;;
17145;SDS011;8688;54.444;18.444;2023-08-07T05:03:23;1.50;;;0.20;;
17145;SDS011;8688;54.444;18.444;2023-08-07T05:05:57;0.20;;;0.20;;
17145;SDS011;8688;54.444;18.444;2023-08-07T05:08:26;0.55;;;0.20;;
17145;SDS011;8688;54.444;18.444;2023-08-07T05:10:56;0.75;;;0.25;;
17145;SDS011;8688;54.444;18.444;2023-08-07T05:13:24;0.20;;;0.20;;
17145;SDS011;8688;54.444;18.444;2023-08-07T05:15:56;0.20;;;0.10;;
17145;SDS011;8688;54.444;18.444;2023-08-07T05:18:27;0.10;;;0.10;;
17145;SDS011;8688;54.444;18.444;2023-08-07T05:20:57;0.20;;;0.20;;
17145;SDS011;8688;54.444;18.444;2023-08-07T05:23:28;0.25;;;0.22;;
17145;SDS011;8688;54.444;18.444;2023-08-07T05:25:59;2.45;;;0.30;;
17145;SDS011;8688;54.444;18.444;2023-08-07T05:28:28;0.57;;;0.20;;
17145;SDS011;8688;54.444;18.444;2023-08-07T05:30:59;0.73;;;0.15;;
17145;SDS011;8688;54.444;18.444;2023-08-07T05:33:27;0.70;;;0.20;;
17145;SDS011;8688;54.444;18.444;2023-08-07T05:36:04;0.68;;;0.20;;
17145;SDS011;8688;54.444;18.444;2023-08-07T05:38:33;1.52;;;0.35;;
17145;SDS011;8688;54.444;18.444;2023-08-07T05:41:06;0.50;;;0.20;;
17145;SDS011;8688;54.444;18.444;2023-08-07T05:43:39;0.22;;;0.22;;
17145;SDS011;8688;54.444;18.444;2023-08-07T05:46:07;1.65;;;0.32;;
17145;SDS011;8688;54.444;18.444;2023-08-07T05:48:35;0.50;;;0.22;;
17145;SDS011;8688;54.444;18.444;2023-08-07T05:51:04;0.55;;;0.30;;
17145;SDS011;8688;54.444;18.444;2023-08-07T05:53:32;0.55;;;0.22;;
17145;SDS011;8688;54.444;18.444;2023-08-07T05:56:02;1.70;;;0.30;;
17145;SDS011;8688;54.444;18.444;2023-08-07T05:58:32;1.35;;;0.30;;
17145;SDS011;8688;54.444;18.444;2023-08-07T06:01:04;1.73;;;0.40;;
17145;SDS011;8688;54.444;18.444;2023-08-07T06:03:32;3.03;;;0.40;;
17145;SDS011;8688;54.444;18.444;2023-08-07T06:06:03;0.88;;;0.20;;
17145;SDS011;8688;54.444;18.444;2023-08-07T06:08:40;0.35;;;0.30;;
17145;SDS011;8688;54.444;18.444;2023-08-07T06:11:09;0.73;;;0.40;;
17145;SDS011;8688;54.444;18.444;2023-08-07T06:13:39;0.40;;;0.30;;
17145;SDS011;8688;54.444;18.444;2023-08-07T06:16:08;0.50;;;0.30;;
17145;SDS011;8688;54.444;18.444;2023-08-07T06:18:39;0.52;;;0.20;;
17145;SDS011;8688;54.444;18.444;2023-08-07T06:21:10;1.45;;;0.40;;
17145;SDS011;8688;54.444;18.444;2023-08-07T06:23:38;1.98;;;0.40;;
17145;SDS011;8688;54.444;18.444;2023-08-07T06:26:11;0.75;;;0.20;;
17145;SDS011;8688;54.444;18.444;2023-08-07T06:28:43;0.40;;;0.25;;
17145;SDS011;8688;54.444;18.444;2023-08-07T06:31:11;0.63;;;0.63;;
17145;SDS011;8688;54.444;18.444;2023-08-07T06:33:42;1.27;;;0.30;;
17145;SDS011;8688;54.444;18.444;2023-08-07T06:36:10;0.40;;;0.40;;
17145;SDS011;8688;54.444;18.444;2023-08-07T06:38:39;2.17;;;0.30;;
17145;SDS011;8688;54.444;18.444;2023-08-07T06:41:07;3.22;;;0.30;;
17145;SDS011;8688;54.444;18.444;2023-08-07T06:43:35;0.47;;;0.30;;
17145;SDS011;8688;54.444;18.444;2023-08-07T06:46:04;0.82;;;0.10;;
17145;SDS011;8688;54.444;18.444;2023-08-07T06:48:32;2.10;;;0.30;;
17145;SDS011;8688;54.444;18.444;2023-08-07T06:51:00;0.40;;;0.30;;
17145;SDS011;8688;54.444;18.444;2023-08-07T06:53:29;0.47;;;0.40;;
17145;SDS011;8688;54.444;18.444;2023-08-07T06:55:57;0.35;;;0.20;;
17145;SDS011;8688;54.444;18.444;2023-08-07T06:58:25;1.40;;;0.30;;
17145;SDS011;8688;54.444;18.444;2023-08-07T07:00:53;1.65;;;0.40;;
17145;SDS011;8688;54.444;18.444;2023-08-07T07:03:22;0.50;;;0.30;;
17145;SDS011;8688;54.444;18.444;2023-08-07T07:05:50;1.77;;;0.40;;
17145;SDS011;8688;54.444;18.444;2023-08-07T07:08:18;0.30;;;0.30;;
17145;SDS011;8688;54.444;18.444;2023-08-07T07:10:46;0.90;;;0.40;;
17145;SDS011;8688;54.444;18.444;2023-08-07T07:13:15;1.75;;;0.40;;
17145;SDS011;8688;54.444;18.444;2023-08-07T07:15:42;2.22;;;0.52;;
17145;SDS011;8688;54.444;18.444;2023-08-07T07:18:10;1.42;;;0.28;;
17145;SDS011;8688;54.444;18.444;2023-08-07T07:20:40;0.38;;;0.20;;
17145;SDS011;8688;54.444;18.444;2023-08-07T07:23:08;2.50;;;0.50;;
17145;SDS011;8688;54.444;18.444;2023-08-07T07:25:36;1.20;;;0.30;;
17145;SDS011;8688;54.444;18.444;2023-08-07T07:28:04;1.17;;;0.40;;
17145;SDS011;8688;54.444;18.444;2023-08-07T07:30:32;1.10;;;0.50;;
17145;SDS011;8688;54.444;18.444;2023-08-07T07:33:00;1.65;;;0.38;;
17145;SDS011;8688;54.444;18.444;2023-08-07T07:35:28;0.52;;;0.40;;
17145;SDS011;8688;54.444;18.444;2023-08-07T07:37:57;3.03;;;0.40;;
17145;SDS011;8688;54.444;18.444;2023-08-07T07:40:26;0.38;;;0.38;;
17145;SDS011;8688;54.444;18.444;2023-08-07T07:42:54;0.30;;;0.30;;
17145;SDS011;8688;54.444;18.444;2023-08-07T07:45:22;0.57;;;0.40;;
17145;SDS011;8688;54.444;18.444;2023-08-07T07:47:50;0.60;;;0.40;;
17145;SDS011;8688;54.444;18.444;2023-08-07T07:50:18;0.47;;;0.40;;
17145;SDS011;8688;54.444;18.444;2023-08-07T07:52:46;0.63;;;0.30;;
17145;SDS011;8688;54.444;18.444;2023-08-07T07:55:16;2.47;;;0.50;;
17145;SDS011;8688;54.444;18.444;2023-08-07T07:57:44;1.65;;;0.30;;
17145;SDS011;8688;54.444;18.444;2023-08-07T08:00:12;0.75;;;0.40;;
17145;SDS011;8688;54.444;18.444;2023-08-07T08:02:41;1.38;;;0.40;;
17145;SDS011;8688;54.444;18.444;2023-08-07T08:05:09;2.67;;;0.60;;
17145;SDS011;8688;54.444;18.444;2023-08-07T08:07:38;0.47;;;0.40;;
17145;SDS011;8688;54.444;18.444;2023-08-07T08:10:07;0.85;;;0.43;;
17145;SDS011;8688;54.444;18.444;2023-08-07T08:12:38;1.58;;;0.50;;
17145;SDS011;8688;54.444;18.444;2023-08-07T08:15:07;2.15;;;0.50;;
17145;SDS011;8688;54.444;18.444;2023-08-07T08:17:35;0.90;;;0.60;;
17145;SDS011;8688;54.444;18.444;2023-08-07T08:20:05;0.45;;;0.38;;
17145;SDS011;8688;54.444;18.444;2023-08-07T08:22:34;4.35;;;0.65;;
17145;SDS011;8688;54.444;18.444;2023-08-07T08:25:02;0.73;;;0.52;;
17145;SDS011;8688;54.444;18.444;2023-08-07T08:27:30;0.63;;;0.50;;
17145;SDS011;8688;54.444;18.444;2023-08-07T08:30:01;1.08;;;0.47;;
17145;SDS011;8688;54.444;18.444;2023-08-07T08:32:29;0.70;;;0.40;;
17145;SDS011;8688;54.444;18.444;2023-08-07T08:35:00;2.08;;;0.40;;
17145;SDS011;8688;54.444;18.444;2023-08-07T08:37:28;1.38;;;0.52;;
17145;SDS011;8688;54.444;18.444;2023-08-07T08:39:59;2.63;;;0.60;;
17145;SDS011;8688;54.444;18.444;2023-08-07T08:42:28;3.47;;;0.60;;
17145;SDS011;8688;54.444;18.444;2023-08-07T08:44:57;3.38;;;0.77;;
17145;SDS011;8688;54.444;18.444;2023-08-07T08:47:29;3.97;;;0.88;;
17145;SDS011;8688;54.444;18.444;2023-08-07T08:50:03;1.02;;;0.60;;
17145;SDS011;8688;54.444;18.444;2023-08-07T08:52:35;0.50;;;0.50;;
17145;SDS011;8688;54.444;18.444;2023-08-07T08:55:05;1.27;;;0.65;;
17145;SDS011;8688;54.444;18.444;2023-08-07T08:57:40;4.18;;;0.80;;
17145;SDS011;8688;54.444;18.444;2023-08-07T09:00:11;1.98;;;1.05;;
17145;SDS011;8688;54.444;18.444;2023-08-07T09:02:43;0.75;;;0.40;;
17145;SDS011;8688;54.444;18.444;2023-08-07T09:05:11;1.30;;;0.65;;
17145;SDS011;8688;54.444;18.444;2023-08-07T09:07:41;1.77;;;0.63;;
17145;SDS011;8688;54.444;18.444;2023-08-07T09:10:12;0.90;;;0.57;;
17145;SDS011;8688;54.444;18.444;2023-08-07T09:12:44;0.50;;;0.50;;
17145;SDS011;8688;54.444;18.444;2023-08-07T09:15:24;0.57;;;0.40;;
17145;SDS011;8688;54.444;18.444;2023-08-07T09:18:02;2.75;;;0.50;;
17145;SDS011;8688;54.444;18.444;2023-08-07T09:20:36;2.55;;;0.43;;
17145;SDS011;8688;54.444;18.444;2023-08-07T09:23:05;0.95;;;0.40;;
17145;SDS011;8688;54.444;18.444;2023-08-07T09:25:34;5.55;;;0.55;;
17145;SDS011;8688;54.444;18.444;2023-08-07T09:28:04;2.35;;;0.50;;
17145;SDS011;8688;54.444;18.444;2023-08-07T09:30:35;1.85;;;0.60;;
17145;SDS011;8688;54.444;18.444;2023-08-07T09:33:09;3.25;;;0.60;;
17145;SDS011;8688;54.444;18.444;2023-08-07T09:35:37;1.58;;;0.60;;
17145;SDS011;8688;54.444;18.444;2023-08-07T09:38:07;1.73;;;0.60;;
17145;SDS011;8688;54.444;18.444;2023-08-07T09:40:36;3.70;;;0.60;;
17145;SDS011;8688;54.444;18.444;2023-08-07T09:43:20;0.52;;;0.50;;
17145;SDS011;8688;54.444;18.444;2023-08-07T09:45:50;3.58;;;0.70;;
17145;SDS011;8688;54.444;18.444;2023-08-07T09:48:22;1.70;;;0.60;;
17145;SDS011;8688;54.444;18.444;2023-08-07T09:50:52;2.17;;;0.90;;
17145;SDS011;8688;54.444;18.444;2023-08-07T09:53:27;0.60;;;0.50;;
17145;SDS011;8688;54.444;18.444;2023-08-07T09:55:57;1.17;;;0.65;;
17145;SDS011;8688;54.444;18.444;2023-08-07T09:58:25;0.80;;;0.52;;
17145;SDS011;8688;54.444;18.444;2023-08-07T10:00:55;1.00;;;0.90;;
17145;SDS011;8688;54.444;18.444;2023-08-07T10:03:29;0.77;;;0.50;;
17145;SDS011;8688;54.444;18.444;2023-08-07T10:05:58;2.67;;;0.70;;
17145;SDS011;8688;54.444;18.444;2023-08-07T10:08:27;1.42;;;0.60;;
17145;SDS011;8688;54.444;18.444;2023-08-07T10:10:57;0.95;;;0.75;;
17145;SDS011;8688;54.444;18.444;2023-08-07T10:13:28;3.00;;;0.80;;
17145;SDS011;8688;54.444;18.444;2023-08-07T10:15:58;1.08;;;0.70;;
17145;SDS011;8688;54.444;18.444;2023-08-07T10:18:27;2.53;;;0.88;;
17145;SDS011;8688;54.444;18.444;2023-08-07T10:20:55;1.33;;;0.60;;
17145;SDS011;8688;54.444;18.444;2023-08-07T10:23:27;1.67;;;0.63;;
17145;SDS011;8688;54.444;18.444;2023-08-07T10:25:55;1.15;;;0.80;;
17145;SDS011;8688;54.444;18.444;2023-08-07T10:28:26;2.90;;;0.75;;
17145;SDS011;8688;54.444;18.444;2023-08-07T10:30:55;4.25;;;0.98;;
17145;SDS011;8688;54.444;18.444;2023-08-07T10:33:26;3.35;;;1.17;;
17145;SDS011;8688;54.444;18.444;2023-08-07T10:35:57;3.80;;;0.90;;
17145;SDS011;8688;54.444;18.444;2023-08-07T10:38:34;1.27;;;0.90;;
17145;SDS011;8688;54.444;18.444;2023-08-07T10:41:06;2.42;;;1.10;;
17145;SDS011;8688;54.444;18.444;2023-08-07T10:43:38;1.23;;;0.93;;
17145;SDS011;8688;54.444;18.444;2023-08-07T10:46:12;1.85;;;1.00;;
17145;SDS011;8688;54.444;18.444;2023-08-07T10:48:44;2.08;;;0.75;;
17145;SDS011;8688;54.444;18.444;2023-08-07T10:51:23;2.63;;;1.10;;
17145;SDS011;8688;54.444;18.444;2023-08-07T10:53:58;2.55;;;1.08;;
17145;SDS011;8688;54.444;18.444;2023-08-07T10:56:29;1.67;;;0.90;;
17145;SDS011;8688;54.444;18.444;2023-08-07T10:59:07;2.28;;;0.90;;
17145;SDS011;8688;54.444;18.444;2023-08-07T11:01:41;3.42;;;1.15;;
17145;SDS011;8688;54.444;18.444;2023-08-07T11:04:12;1.63;;;1.08;;
17145;SDS011;8688;54.444;18.444;2023-08-07T11:06:42;1.23;;;0.90;;
17145;SDS011;8688;54.444;18.444;2023-08-07T11:09:14;2.80;;;1.08;;
17145;SDS011;8688;54.444;18.444;2023-08-07T11:11:42;2.78;;;1.55;;
17145;SDS011;8688;54.444;18.444;2023-08-07T11:14:17;2.83;;;0.80;;
17145;SDS011;8688;54.444;18.444;2023-08-07T11:16:48;3.33;;;0.90;;
17145;SDS011;8688;54.444;18.444;2023-08-07T11:19:17;1.83;;;0.90;;
17145;SDS011;8688;54.444;18.444;2023-08-07T11:21:46;3.25;;;1.00;;
17145;SDS011;8688;54.444;18.444;2023-08-07T11:24:16;3.28;;;1.00;;
17145;SDS011;8688;54.444;18.444;2023-08-07T11:26:46;2.17;;;0.98;;
17145;SDS011;8688;54.444;18.444;2023-08-07T11:29:18;2.05;;;1.15;;
17145;SDS011;8688;54.444;18.444;2023-08-07T11:31:47;4.95;;;1.10;;
17145;SDS011;8688;54.444;18.444;2023-08-07T11:34:16;1.67;;;0.98;;
17145;SDS011;8688;54.444;18.444;2023-08-07T11:36:45;1.95;;;1.02;;
17145;SDS011;8688;54.444;18.444;2023-08-07T11:39:13;1.50;;;1.10;;
17145;SDS011;8688;54.444;18.444;2023-08-07T11:41:42;5.53;;;1.00;;
17145;SDS011;8688;54.444;18.444;2023-08-07T11:44:11;1.38;;;0.90;;
17145;SDS011;8688;54.444;18.444;2023-08-07T11:46:39;3.50;;;1.00;;
17145;SDS011;8688;54.444;18.444;2023-08-07T11:49:09;1.52;;;0.95;;
17145;SDS011;8688;54.444;18.444;2023-08-07T11:51:37;1.20;;;0.90;;
17145;SDS011;8688;54.444;18.444;2023-08-07T11:54:05;5.32;;;1.10;;
17145;SDS011;8688;54.444;18.444;2023-08-07T11:56:34;1.38;;;0.93;;
17145;SDS011;8688;54.444;18.444;2023-08-07T11:59:02;1.60;;;1.15;;
17145;SDS011;8688;54.444;18.444;2023-08-07T12:01:36;2.00;;;0.90;;
17145;SDS011;8688;54.444;18.444;2023-08-07T12:04:10;2.92;;;1.05;;
17145;SDS011;8688;54.444;18.444;2023-08-07T12:06:45;2.30;;;1.10;;
17145;SDS011;8688;54.444;18.444;2023-08-07T12:09:20;1.30;;;0.82;;
17145;SDS011;8688;54.444;18.444;2023-08-07T12:11:49;2.60;;;1.00;;
17145;SDS011;8688;54.444;18.444;2023-08-07T12:14:28;3.70;;;1.10;;
17145;SDS011;8688;54.444;18.444;2023-08-07T12:16:57;1.58;;;0.80;;
17145;SDS011;8688;54.444;18.444;2023-08-07T12:19:36;3.17;;;1.00;;
17145;SDS011;8688;54.444;18.444;2023-08-07T12:22:06;1.38;;;0.98;;
17145;SDS011;8688;54.444;18.444;2023-08-07T12:24:43;2.10;;;1.20;;
17145;SDS011;8688;54.444;18.444;2023-08-07T12:27:13;1.30;;;1.10;;
17145;SDS011;8688;54.444;18.444;2023-08-07T12:29:44;2.13;;;1.00;;
17145;SDS011;8688;54.444;18.444;2023-08-07T12:32:12;2.45;;;1.00;;
17145;SDS011;8688;54.444;18.444;2023-08-07T12:34:43;2.35;;;1.02;;
17145;SDS011;8688;54.444;18.444;2023-08-07T12:37:11;3.63;;;1.10;;
17145;SDS011;8688;54.444;18.444;2023-08-07T12:39:39;2.67;;;0.88;;
17145;SDS011;8688;54.444;18.444;2023-08-07T12:42:08;1.50;;;0.95;;
17145;SDS011;8688;54.444;18.444;2023-08-07T12:44:36;2.25;;;1.10;;
17145;SDS011;8688;54.444;18.444;2023-08-07T12:47:04;1.20;;;0.77;;
17145;SDS011;8688;54.444;18.444;2023-08-07T12:49:33;1.33;;;0.90;;
17145;SDS011;8688;54.444;18.444;2023-08-07T12:52:03;2.67;;;1.00;;
17145;SDS011;8688;54.444;18.444;2023-08-07T12:54:34;3.17;;;0.90;;
17145;SDS011;8688;54.444;18.444;2023-08-07T12:57:02;7.93;;;1.20;;
17145;SDS011;8688;54.444;18.444;2023-08-07T12:59:33;3.90;;;1.20;;
17145;SDS011;8688;54.444;18.444;2023-08-07T13:02:01;2.47;;;0.90;;
17145;SDS011;8688;54.444;18.444;2023-08-07T13:04:29;1.75;;;1.00;;
17145;SDS011;8688;54.444;18.444;2023-08-07T13:06:58;2.78;;;1.02;;
17145;SDS011;8688;54.444;18.444;2023-08-07T13:09:32;2.05;;;0.95;;
17145;SDS011;8688;54.444;18.444;2023-08-07T13:12:00;4.75;;;1.13;;
17145;SDS011;8688;54.444;18.444;2023-08-07T13:14:28;1.73;;;1.17;;
17145;SDS011;8688;54.444;18.444;2023-08-07T13:16:59;2.05;;;0.98;;
17145;SDS011;8688;54.444;18.444;2023-08-07T13:19:27;1.00;;;0.90;;
17145;SDS011;8688;54.444;18.444;2023-08-07T13:21:56;1.73;;;1.00;;
17145;SDS011;8688;54.444;18.444;2023-08-07T13:24:27;2.83;;;0.95;;
17145;SDS011;8688;54.444;18.444;2023-08-07T13:26:57;1.35;;;0.93;;
17145;SDS011;8688;54.444;18.444;2023-08-07T13:29:24;1.95;;;1.20;;
17145;SDS011;8688;54.444;18.444;2023-08-07T13:31:56;1.55;;;0.90;;
17145;SDS011;8688;54.444;18.444;2023-08-07T13:34:24;2.30;;;0.90;;
17145;SDS011;8688;54.444;18.444;2023-08-07T13:36:52;1.85;;;1.08;;
17145;SDS011;8688;54.444;18.444;2023-08-07T13:39:20;8.13;;;1.30;;
17145;SDS011;8688;54.444;18.444;2023-08-07T13:41:49;2.38;;;1.30;;
17145;SDS011;8688;54.444;18.444;2023-08-07T13:44:20;2.00;;;1.10;;
17145;SDS011;8688;54.444;18.444;2023-08-07T13:46:48;2.28;;;1.10;;
17145;SDS011;8688;54.444;18.444;2023-08-07T13:49:17;4.03;;;1.30;;
17145;SDS011;8688;54.444;18.444;2023-08-07T13:51:45;2.67;;;1.25;;
17145;SDS011;8688;54.444;18.444;2023-08-07T13:54:14;2.63;;;1.20;;
17145;SDS011;8688;54.444;18.444;2023-08-07T13:56:45;4.82;;;1.40;;
17145;SDS011;8688;54.444;18.444;2023-08-07T13:59:15;2.05;;;1.25;;
17145;SDS011;8688;54.444;18.444;2023-08-07T14:01:46;4.68;;;1.30;;
17145;SDS011;8688;54.444;18.444;2023-08-07T14:04:16;3.53;;;1.52;;
17145;SDS011;8688;54.444;18.444;2023-08-07T14:06:46;2.80;;;1.40;;
17145;SDS011;8688;54.444;18.444;2023-08-07T14:09:14;2.85;;;1.35;;
17145;SDS011;8688;54.444;18.444;2023-08-07T14:11:43;4.07;;;1.35;;
17145;SDS011;8688;54.444;18.444;2023-08-07T14:14:13;3.85;;;1.58;;
17145;SDS011;8688;54.444;18.444;2023-08-07T14:16:43;3.33;;;1.40;;
17145;SDS011;8688;54.444;18.444;2023-08-07T14:19:13;4.25;;;1.38;;
17145;SDS011;8688;54.444;18.444;2023-08-07T14:21:41;3.90;;;1.60;;
17145;SDS011;8688;54.444;18.444;2023-08-07T14:24:10;3.58;;;1.40;;
17145;SDS011;8688;54.444;18.444;2023-08-07T14:26:38;3.88;;;1.35;;
17145;SDS011;8688;54.444;18.444;2023-08-07T14:29:06;3.53;;;1.20;;
17145;SDS011;8688;54.444;18.444;2023-08-07T14:31:37;2.47;;;1.02;;
17145;SDS011;8688;54.444;18.444;2023-08-07T14:34:06;1.58;;;1.20;;
17145;SDS011;8688;54.444;18.444;2023-08-07T14:36:36;2.33;;;1.40;;
17145;SDS011;8688;54.444;18.444;2023-08-07T14:39:06;2.03;;;1.33;;
17145;SDS011;8688;54.444;18.444;2023-08-07T14:41:33;2.42;;;1.35;;
17145;SDS011;8688;54.444;18.444;2023-08-07T14:44:02;2.05;;;1.45;;
17145;SDS011;8688;54.444;18.444;2023-08-07T14:46:30;3.65;;;1.48;;
17145;SDS011;8688;54.444;18.444;2023-08-07T14:48:58;5.20;;;1.40;;
17145;SDS011;8688;54.444;18.444;2023-08-07T14:51:26;2.42;;;1.40;;
17145;SDS011;8688;54.444;18.444;2023-08-07T14:53:56;2.80;;;1.30;;
17145;SDS011;8688;54.444;18.444;2023-08-07T14:56:24;5.22;;;1.60;;
17145;SDS011;8688;54.444;18.444;2023-08-07T14:58:53;2.83;;;1.70;;
17145;SDS011;8688;54.444;18.444;2023-08-07T15:01:21;4.40;;;1.63;;
17145;SDS011;8688;54.444;18.444;2023-08-07T15:03:49;2.30;;;1.35;;
17145;SDS011;8688;54.444;18.444;2023-08-07T15:06:17;2.70;;;1.30;;
17145;SDS011;8688;54.444;18.444;2023-08-07T15:08:47;2.20;;;1.60;;